createdAt,value
2017-11-15T00:02:04.303Z,100292.62
2017-11-15T00:04:40.336Z,100287.20
2017-11-15T00:07:15.633Z,100281.09
2017-11-15T00:09:50.485Z,100285.88
2017-11-15T00:12:29.306Z,100289.69
2017-11-15T00:15:01.718Z,100289.69
2017-11-15T00:17:33.487Z,100289.69
2017-11-15T00:20:09.918Z,100289.40
2017-11-15T00:22:48.643Z,100286.72
2017-11-15T00:25:24.100Z,100289.80
2017-11-15T00:27:58.043Z,100288.70
2017-11-15T00:30:34.326Z,100287.67
2017-11-15T00:33:08.406Z,100288.99
2017-11-15T00:35:40.142Z,100287.27
2017-11-15T00:38:13.280Z,100294.81
2017-11-15T00:40:44.743Z,100290.70
2017-11-15T00:43:16.083Z,100280.38
2017-11-15T00:45:47.991Z,100296.14
2017-11-15T00:48:19.832Z,100287.64
2017-11-15T00:50:51.892Z,100296.03
2017-11-15T00:53:23.936Z,100297.36
2017-11-15T00:55:58.937Z,100307.45
2017-11-15T00:58:31.805Z,100308.37
2017-11-15T01:01:04.410Z,100301.63
2017-11-15T01:03:36.251Z,100299.66
2017-11-15T01:06:10.150Z,100288.36
2017-11-15T01:08:42.178Z,100291.02
2017-11-15T01:11:19.245Z,100300.30
2017-11-15T01:13:51.573Z,100288.77
2017-11-15T01:16:23.835Z,100290.09
2017-11-15T01:18:55.287Z,100288.36
2017-11-15T01:21:26.800Z,100295.52
2017-11-15T01:23:58.269Z,100296.12
2017-11-15T01:26:29.834Z,100300.53
2017-11-15T01:29:01.512Z,100301.73
2017-11-15T01:31:33.443Z,100306.23
2017-11-15T01:34:04.867Z,100296.86
2017-11-15T01:36:36.583Z,100310.45
2017-11-15T01:39:08.627Z,100307.65
2017-11-15T01:41:39.546Z,100304.48
2017-11-15T01:44:11.699Z,100303.27
2017-11-15T01:46:43.378Z,100305.80
2017-11-15T01:49:15.561Z,100309.09
2017-11-15T01:51:47.522Z,100310.82
2017-11-15T01:54:19.665Z,100307.47
2017-11-15T01:56:51.460Z,100300.73
2017-11-15T01:59:36.873Z,100298.88
2017-11-15T02:02:08.569Z,100305.11
2017-11-15T02:04:40.645Z,100297.55
2017-11-15T02:07:12.440Z,100290.87
2017-11-15T02:09:44.699Z,100290.23
2017-11-15T02:12:16.029Z,100298.48
2017-11-15T02:14:49.023Z,100297.04
2017-11-15T02:17:22.392Z,100303.27
2017-11-15T02:19:54.188Z,100297.55
2017-11-15T02:22:25.592Z,100299.69
2017-11-15T02:24:58.346Z,100298.11
2017-11-15T02:27:30.678Z,100288.70
2017-11-15T02:30:03.535Z,100297.47
2017-11-15T02:32:36.838Z,100297.76
2017-11-15T02:35:09.300Z,100293.27
2017-11-15T02:37:40.986Z,100288.25
2017-11-15T02:40:14.095Z,100290.49
2017-11-15T02:42:47.384Z,100289.86
2017-11-15T02:45:19.593Z,100288.65
2017-11-15T02:47:51.255Z,100283.34
2017-11-15T02:50:23.087Z,100281.61
2017-11-15T02:52:55.493Z,100281.50
2017-11-15T02:55:28.595Z,100278.04
2017-11-15T02:58:02.558Z,100281.21
2017-11-15T03:00:36.693Z,100285.59
2017-11-15T03:03:08.021Z,100280.80
2017-11-15T03:05:39.643Z,100279.48
2017-11-15T03:08:11.555Z,100272.73
2017-11-15T03:10:44.738Z,100275.27
2017-11-15T03:13:16.489Z,100269.97
2017-11-15T03:15:48.209Z,100273.68
2017-11-15T03:18:20.721Z,100273.28
2017-11-15T03:20:54.520Z,100264.92
2017-11-15T03:23:26.129Z,100267.31
2017-11-15T03:25:58.010Z,100276.22
2017-11-15T03:28:29.322Z,100277.66
2017-11-15T03:31:00.773Z,100282.16
2017-11-15T03:33:32.607Z,100277.78
2017-11-15T03:36:04.421Z,100278.73
2017-11-15T03:38:35.805Z,100269.97
2017-11-15T03:41:07.928Z,100265.47
2017-11-15T03:43:39.457Z,100274.06
2017-11-15T03:46:11.076Z,100282.70
2017-11-15T03:48:42.467Z,100277.92
2017-11-15T03:51:15.442Z,100283.63
2017-11-15T03:53:46.940Z,100276.45
2017-11-15T03:56:18.542Z,100277.23
2017-11-15T03:58:52.240Z,100278.84
2017-11-15T04:01:24.215Z,100279.77
2017-11-15T04:03:55.639Z,100278.84
2017-11-15T04:06:27.379Z,100282.02
2017-11-15T04:08:59.767Z,100279.37
2017-11-15T04:11:31.764Z,100285.42
2017-11-15T04:14:03.517Z,100286.11
2017-11-15T04:16:35.551Z,100291.70
2017-11-15T04:19:07.132Z,100284.55
2017-11-15T04:21:38.733Z,100281.13
2017-11-15T04:24:11.761Z,100268.30
2017-11-15T04:26:43.574Z,100278.13
2017-11-15T04:29:15.302Z,100273.51
2017-11-15T04:31:47.127Z,100280.66
2017-11-15T04:34:19.361Z,100280.66
2017-11-15T04:36:51.018Z,100281.98
2017-11-15T04:39:22.701Z,100274.55
2017-11-15T04:41:54.357Z,100278.53
2017-11-15T04:44:26.127Z,100280.08
2017-11-15T04:46:57.797Z,100275.09
2017-11-15T04:49:30.740Z,100287.12
2017-11-15T04:52:02.800Z,100286.20
2017-11-15T04:54:34.673Z,100284.47
2017-11-15T04:57:06.300Z,100284.87
2017-11-15T04:59:38.404Z,100286.20
2017-11-15T05:02:09.872Z,100290.92
2017-11-15T05:04:41.554Z,100300.16
2017-11-15T05:07:13.402Z,100292.31
2017-11-15T05:09:45.121Z,100281.98
2017-11-15T05:12:16.541Z,100284.93
2017-11-15T05:14:48.039Z,100285.45
2017-11-15T05:17:19.931Z,100282.28
2017-11-15T05:19:52.024Z,100281.58
2017-11-15T05:22:24.189Z,100279.33
2017-11-15T05:24:56.061Z,100281.58
2017-11-15T05:27:27.714Z,100283.55
2017-11-15T05:30:00.010Z,100281.41
2017-11-15T05:32:31.585Z,100284.18
2017-11-15T05:35:03.442Z,100281.91
2017-11-15T05:37:35.221Z,100288.13
2017-11-15T05:40:07.692Z,100289.69
2017-11-15T05:42:39.777Z,100301.45
2017-11-15T05:45:11.685Z,100302.38
2017-11-15T05:47:43.003Z,100302.89
2017-11-15T05:50:14.822Z,100305.80
2017-11-15T05:52:46.441Z,100297.70
2017-11-15T05:55:18.623Z,100300.35
2017-11-15T05:57:50.593Z,100306.47
2017-11-15T06:00:22.502Z,100305.66
2017-11-15T06:02:54.837Z,100315.49
2017-11-15T06:05:26.291Z,100315.75
2017-11-15T06:07:58.874Z,100321.20
2017-11-15T06:10:32.855Z,100325.95
2017-11-15T06:13:06.048Z,100329.41
2017-11-15T06:15:39.256Z,100323.30
2017-11-15T06:18:11.169Z,100325.84
2017-11-15T06:20:42.812Z,100327.11
2017-11-15T06:23:15.152Z,100325.18
2017-11-15T06:25:47.158Z,100327.78
2017-11-15T06:28:18.969Z,100315.98
2017-11-15T06:30:50.962Z,100337.06
2017-11-15T06:33:22.635Z,100334.20
2017-11-15T06:35:55.102Z,100331.61
2017-11-15T06:38:26.970Z,100331.78
2017-11-15T06:40:58.401Z,100338.97
2017-11-15T06:43:33.602Z,100345.37
2017-11-15T06:46:04.962Z,100343.50
2017-11-15T06:48:36.311Z,100345.20
2017-11-15T06:51:07.764Z,100349.06
2017-11-15T06:53:39.307Z,100350.13
2017-11-15T06:56:12.345Z,100356.59
2017-11-15T06:58:45.285Z,100356.94
2017-11-15T07:01:16.713Z,100362.87
2017-11-15T07:03:50.092Z,100359.16
2017-11-15T07:06:22.793Z,100366.14
2017-11-15T07:08:54.237Z,100369.53
2017-11-15T07:11:27.700Z,100367.66
2017-11-15T07:14:00.651Z,100361.34
2017-11-15T07:16:32.926Z,100370.48
2017-11-15T07:19:05.430Z,100365.84
2017-11-15T07:21:36.977Z,100367.11
2017-11-15T07:24:09.635Z,100366.70
2017-11-15T07:26:40.849Z,100375.47
2017-11-15T07:29:13.047Z,100369.02
2017-11-15T07:31:44.792Z,100371.17
2017-11-15T07:34:17.183Z,100367.58
2017-11-15T07:36:49.552Z,100377.36
2017-11-15T07:39:21.622Z,100380.65
2017-11-15T07:41:53.393Z,100371.97
2017-11-15T07:44:25.491Z,100376.03
2017-11-15T07:46:58.451Z,100378.14
2017-11-15T07:49:31.144Z,100375.16
2017-11-15T07:52:03.226Z,100372.05
2017-11-15T07:54:35.053Z,100369.02
2017-11-15T07:57:06.717Z,100369.65
2017-11-15T07:59:38.392Z,100374.20
2017-11-15T08:02:10.167Z,100384.08
2017-11-15T08:04:42.103Z,100383.38
2017-11-15T08:07:14.267Z,100383.61
2017-11-15T08:09:46.444Z,100394.23
2017-11-15T08:12:18.107Z,100394.98
2017-11-15T08:14:49.398Z,100389.13
2017-11-15T08:17:22.174Z,100386.13
2017-11-15T08:19:53.728Z,100387.72
2017-11-15T08:22:25.089Z,100391.52
2017-11-15T08:24:56.950Z,100389.33
2017-11-15T08:27:28.632Z,100384.75
2017-11-15T08:30:00.249Z,100383.39
2017-11-15T08:32:33.205Z,100388.30
2017-11-15T08:35:06.237Z,100394.75
2017-11-15T08:37:39.703Z,100404.79
2017-11-15T08:40:12.270Z,100412.43
2017-11-15T08:42:47.152Z,100416.01
2017-11-15T08:45:19.649Z,100419.24
2017-11-15T08:47:53.396Z,100422.50
2017-11-15T08:50:26.844Z,100427.97
2017-11-15T08:52:58.692Z,100422.11
2017-11-15T08:55:31.342Z,100421.16
2017-11-15T09:44:52.973Z,100421.53
2017-11-15T09:47:24.475Z,100421.66
2017-11-15T09:49:57.161Z,100423.25
2017-11-15T09:52:29.649Z,100419.66
2017-11-15T09:55:01.158Z,100416.69
2017-11-15T09:57:33.070Z,100411.34
2017-11-15T10:00:04.709Z,100418.73
2017-11-15T10:02:36.584Z,100417.34
2017-11-15T10:05:08.763Z,100419.42
2017-11-15T10:07:40.589Z,100416.39
2017-11-15T10:10:12.583Z,100419.05
2017-11-15T10:12:44.541Z,100399.30
2017-11-15T10:15:16.264Z,100415.52
2017-11-15T10:17:48.221Z,100407.33
2017-11-15T10:20:20.210Z,100413.34
2017-11-15T10:22:52.730Z,100408.55
2017-11-15T10:25:23.745Z,100411.17
2017-11-15T10:27:54.827Z,100405.73
2017-11-15T10:30:26.964Z,100409.78
2017-11-15T10:32:58.854Z,100407.25
2017-11-15T10:35:30.999Z,100406.19
2017-11-15T10:38:02.786Z,100409.48
2017-11-15T10:40:35.633Z,100405.73
2017-11-15T10:43:07.475Z,100407.58
2017-11-15T10:45:39.253Z,100407.62
2017-11-15T10:48:11.954Z,100404.42
2017-11-15T10:50:43.439Z,100402.64
2017-11-15T10:53:14.926Z,100400.86
2017-11-15T10:55:46.576Z,100399.80
2017-11-15T10:58:19.088Z,100392.94
2017-11-15T11:00:53.134Z,100402.00
2017-11-15T11:03:25.406Z,100393.39
2017-11-15T11:05:57.295Z,100394.59
2017-11-15T11:13:35.990Z,100394.67
2017-11-15T11:16:07.912Z,100393.21
2017-11-15T11:18:40.336Z,100392.00
2017-11-15T11:21:11.677Z,100390.30
2017-11-15T11:23:43.264Z,100396.14
2017-11-15T11:26:14.336Z,100390.82
2017-11-15T11:28:46.055Z,100396.39
2017-11-15T11:31:17.725Z,100388.88
2017-11-15T11:33:49.395Z,100387.44
2017-11-15T11:36:22.293Z,100390.31
2017-11-15T11:38:54.289Z,100390.78
2017-11-15T11:41:25.695Z,100392.45
2017-11-15T11:43:57.128Z,100396.87
2017-11-15T11:46:29.077Z,100391.25
2017-11-15T11:49:02.033Z,100390.91
2017-11-15T11:51:33.303Z,100391.64
2017-11-15T11:54:05.254Z,100386.16
2017-11-15T11:56:36.828Z,100388.19
2017-11-15T11:59:08.683Z,100393.27
2017-11-15T12:01:40.826Z,100390.05
2017-11-15T12:04:11.960Z,100391.12
2017-11-15T12:06:43.752Z,100378.19
2017-11-15T12:09:18.657Z,100384.12
2017-11-15T12:11:50.268Z,100377.44
2017-11-15T12:14:23.132Z,100376.98
2017-11-15T12:16:54.639Z,100373.39
2017-11-15T12:19:26.181Z,100379.52
2017-11-15T12:21:58.653Z,100372.17
2017-11-15T12:24:31.757Z,100378.25
2017-11-15T12:27:06.246Z,100373.44
2017-11-15T12:29:38.367Z,100357.89
2017-11-15T12:32:10.688Z,100356.97
2017-11-15T12:34:45.454Z,100368.38
2017-11-15T12:37:19.962Z,100361.78
2017-11-15T12:39:51.715Z,100361.00
2017-11-15T12:42:22.945Z,100354.59
2017-11-15T12:44:56.552Z,100356.16
2017-11-15T12:47:29.817Z,100358.59
2017-11-15T12:50:02.926Z,100354.84
2017-11-15T12:52:34.307Z,100360.34
2017-11-15T12:55:05.853Z,100362.00
2017-11-15T12:57:37.360Z,100360.28
2017-11-15T13:00:14.317Z,100361.13
2017-11-15T13:02:47.063Z,100358.89
2017-11-15T13:05:19.834Z,100355.07
2017-11-15T13:07:51.874Z,100357.14
2017-11-15T13:10:23.417Z,100360.79
2017-11-15T13:12:55.184Z,100363.90
2017-11-15T13:15:30.930Z,100355.41
2017-11-15T13:18:06.129Z,100356.22
2017-11-15T13:20:41.751Z,100361.58
2017-11-15T13:23:12.785Z,100357.20
2017-11-15T13:25:45.355Z,100349.69
2017-11-15T13:28:16.953Z,100356.68
2017-11-15T13:30:48.337Z,100358.13
2017-11-15T13:33:21.887Z,100365.57
2017-11-15T13:35:53.425Z,100362.06
2017-11-15T13:38:28.946Z,100356.45
2017-11-15T13:41:02.162Z,100352.99
2017-11-15T13:43:34.998Z,100363.67
2017-11-15T13:46:07.355Z,100361.23
2017-11-15T13:48:38.394Z,100363.50
2017-11-15T13:51:11.838Z,100366.63
2017-11-15T13:53:43.057Z,100368.06
2017-11-15T13:56:15.160Z,100357.08
2017-11-15T13:58:46.562Z,100358.70
2017-11-15T14:01:19.752Z,100349.56
2017-11-15T14:03:55.215Z,100349.11
2017-11-15T14:06:28.234Z,100348.42
2017-11-15T14:08:59.561Z,100341.84
2017-11-15T14:11:34.739Z,100346.39
2017-11-15T14:14:08.429Z,100341.94
2017-11-15T14:16:40.070Z,100343.22
2017-11-15T14:19:12.353Z,100348.94
2017-11-15T14:21:44.714Z,100344.41
2017-11-15T14:24:18.236Z,100344.59
2017-11-15T14:26:51.120Z,100347.26
2017-11-15T14:29:24.414Z,100348.18
2017-11-15T14:31:55.812Z,100341.00
2017-11-15T14:34:27.995Z,100337.65
2017-11-15T14:36:59.582Z,100341.06
2017-11-15T14:39:31.870Z,100339.56
2017-11-15T14:42:04.820Z,100326.48
2017-11-15T14:44:37.116Z,100341.80
2017-11-15T14:47:09.821Z,100343.53
2017-11-15T14:49:44.949Z,100332.25
2017-11-15T14:52:17.857Z,100344.16
2017-11-15T14:54:50.052Z,100352.37
2017-11-15T14:57:25.605Z,100346.81
2017-11-15T15:00:17.270Z,100355.33
2017-11-15T15:02:48.824Z,100358.62
2017-11-15T15:05:20.877Z,100361.04
2017-11-15T15:07:52.735Z,100366.99
2017-11-15T15:10:26.223Z,100362.47
2017-11-15T15:12:57.644Z,100360.85
2017-11-15T15:15:29.560Z,100364.15
2017-11-15T15:18:04.084Z,100368.99
2017-11-15T15:20:36.420Z,100361.61
2017-11-15T15:25:59.956Z,100367.04
2017-11-15T15:28:31.829Z,100368.59
2017-11-15T15:31:06.490Z,100367.20
2017-11-15T15:33:39.080Z,100367.09
2017-11-15T15:36:20.211Z,100366.00
2017-11-15T15:38:54.194Z,100361.99
2017-11-15T15:41:29.474Z,100365.57
2017-11-15T15:44:07.770Z,100371.35
2017-11-15T15:46:41.218Z,100368.67
2017-11-15T15:49:14.115Z,100364.12
2017-11-15T15:51:52.169Z,100363.59
2017-11-15T15:54:31.380Z,100365.56
2017-11-15T15:57:07.721Z,100353.45
2017-11-15T15:59:48.006Z,100361.64
2017-11-15T16:02:29.877Z,100362.16
2017-11-15T16:05:09.976Z,100362.46
2017-11-15T16:07:45.346Z,100362.68
2017-11-15T16:10:41.869Z,100376.08
2017-11-15T16:16:06.140Z,100359.19
2017-11-15T16:19:07.735Z,100368.95
2017-11-15T16:21:42.385Z,100364.63
2017-11-15T16:24:20.119Z,100367.05
2017-11-15T16:26:55.824Z,100360.53
2017-11-15T16:29:32.328Z,100360.91
2017-11-15T16:32:04.292Z,100356.36
2017-11-15T16:34:37.616Z,100354.51
2017-11-15T16:37:12.918Z,100356.47
2017-11-15T16:39:57.857Z,100366.05
2017-11-15T16:42:32.544Z,100372.38
2017-11-15T16:45:09.078Z,100364.59
2017-11-15T16:50:20.386Z,100373.66
2017-11-15T16:52:52.647Z,100369.88
2017-11-15T16:55:24.337Z,100386.52
2017-11-15T16:57:55.590Z,100388.38
2017-11-15T17:00:31.888Z,100381.84
2017-11-15T17:03:06.488Z,100391.38
2017-11-15T17:05:44.605Z,100394.44
2017-11-15T17:08:16.658Z,100393.16
2017-11-15T17:10:52.712Z,100396.16
2017-11-15T17:13:25.052Z,100399.56
2017-11-15T17:15:56.834Z,100405.20
2017-11-15T17:18:36.530Z,100404.33
2017-11-15T17:21:14.850Z,100412.00
2017-11-15T17:23:50.230Z,100410.48
2017-11-15T17:26:22.679Z,100402.23
2017-11-15T17:28:58.128Z,100406.12
2017-11-15T17:31:32.100Z,100414.59
2017-11-15T17:34:09.914Z,100400.47
2017-11-15T17:36:42.039Z,100410.79
2017-11-15T17:39:44.170Z,100401.38
2017-11-15T17:42:30.381Z,100409.64
2017-11-15T17:45:10.745Z,100412.20
2017-11-15T17:47:44.747Z,100419.03
2017-11-15T17:50:20.570Z,100417.23
2017-11-15T17:52:53.284Z,100416.20
2017-11-15T17:55:28.766Z,100420.53
2017-11-15T17:58:01.747Z,100420.72
2017-11-15T18:00:39.311Z,100417.55
2017-11-15T18:03:17.588Z,100424.77
2017-11-15T18:08:39.055Z,100419.80
2017-11-15T18:11:20.783Z,100416.75
2017-11-15T18:13:57.859Z,100420.40
2017-11-15T18:16:46.560Z,100415.17
2017-11-15T18:19:26.285Z,100413.69
2017-11-15T18:23:16.385Z,100408.14
2017-11-15T18:26:01.099Z,100411.98
2017-11-15T18:28:37.795Z,100414.87
2017-11-15T18:31:18.057Z,100415.73
2017-11-15T18:33:52.610Z,100415.91
2017-11-15T18:36:27.581Z,100416.36
2017-11-15T18:38:59.924Z,100401.08
2017-11-15T18:41:32.399Z,100406.44
2017-11-15T18:44:07.607Z,100407.87
2017-11-15T18:46:46.091Z,100410.13
2017-11-15T18:49:19.826Z,100377.17
2017-11-15T18:51:59.363Z,100412.00
2017-11-15T18:54:44.432Z,100408.28
2017-11-15T18:57:25.636Z,100406.13
2017-11-15T18:59:58.314Z,100399.66
2017-11-15T19:02:30.760Z,100399.44
2017-11-15T19:05:03.308Z,100396.16
2017-11-15T19:07:37.424Z,100391.53
2017-11-15T19:10:18.290Z,100404.64
2017-11-15T19:12:55.004Z,100401.05
2017-11-15T19:15:31.225Z,100368.16
2017-11-15T19:18:06.723Z,100399.77
2017-11-15T19:20:40.213Z,100383.06
2017-11-15T19:23:20.530Z,100407.63
2017-11-15T19:25:52.457Z,100403.77
2017-11-15T19:28:25.175Z,100399.94
2017-11-15T19:30:58.679Z,100396.76
2017-11-15T19:33:32.331Z,100404.94
2017-11-15T19:36:07.218Z,100411.38
2017-11-15T19:38:59.758Z,100406.81
2017-11-15T19:41:44.806Z,100403.92
2017-11-15T19:44:28.022Z,100406.34
2017-11-15T19:47:00.982Z,100381.34
2017-11-15T19:49:36.635Z,100405.14
2017-11-15T19:52:08.722Z,100413.30
2017-11-15T19:54:45.245Z,100414.13
2017-11-15T19:57:24.073Z,100407.69
2017-11-15T20:00:13.948Z,100420.55
2017-11-15T20:02:50.112Z,100417.62
2017-11-15T20:05:28.006Z,100416.42
2017-11-15T20:08:00.597Z,100412.41
2017-11-15T20:10:33.074Z,100410.70
2017-11-15T20:13:10.011Z,100409.63
2017-11-15T20:15:42.336Z,100412.44
2017-11-15T20:18:15.381Z,100410.70
2017-11-15T20:20:54.040Z,100408.03
2017-11-15T20:23:30.539Z,100410.02
2017-11-15T20:26:04.638Z,100410.94
2017-11-15T20:28:46.469Z,100415.91
2017-11-15T20:31:22.418Z,100392.51
2017-11-15T20:34:01.032Z,100411.91
2017-11-15T20:36:35.625Z,100407.38
2017-11-15T20:39:14.779Z,100415.43
2017-11-15T20:41:54.359Z,100391.08
2017-11-15T20:44:33.992Z,100402.56
2017-11-15T20:47:07.329Z,100413.95
2017-11-15T20:49:41.915Z,100419.98
2017-11-15T20:52:17.527Z,100416.91
2017-11-15T20:57:48.657Z,100417.69
2017-11-15T21:00:32.132Z,100394.41
2017-11-15T21:05:44.866Z,100401.12
2017-11-15T21:08:22.888Z,100392.81
2017-11-15T21:11:14.557Z,100394.05
2017-11-15T21:13:56.797Z,100378.38
2017-11-15T21:16:38.354Z,100363.67
2017-11-15T21:19:10.047Z,100385.36
2017-11-15T21:21:44.576Z,100378.70
2017-11-15T21:24:17.387Z,100376.31
2017-11-15T21:26:48.892Z,100386.45
2017-11-15T21:29:22.367Z,100374.97
2017-11-15T21:31:54.248Z,100383.66
2017-11-15T21:34:28.998Z,100364.81
2017-11-15T21:37:00.747Z,100380.05
2017-11-15T21:39:34.045Z,100384.22
2017-11-15T21:42:07.068Z,100387.00
2017-11-15T21:44:46.776Z,100382.19
2017-11-15T21:47:19.661Z,100372.85
2017-11-15T21:50:00.265Z,100374.05
2017-11-15T21:52:37.842Z,100370.18
2017-11-15T21:55:18.432Z,100373.80
2017-11-15T21:57:50.020Z,100380.33
2017-11-15T22:00:23.422Z,100371.78
2017-11-15T22:02:57.961Z,100374.06
2017-11-15T22:05:36.260Z,100371.22
2017-11-15T22:08:12.877Z,100373.22
2017-11-15T22:10:44.215Z,100374.37
2017-11-15T22:13:16.478Z,100375.98
2017-11-15T22:15:54.642Z,100380.64
2017-11-15T22:18:29.287Z,100375.93
2017-11-15T22:21:11.184Z,100372.58
2017-11-15T22:23:44.000Z,100373.98
2017-11-15T22:26:19.563Z,100379.18
2017-11-15T22:28:53.735Z,100382.64
2017-11-15T22:31:30.905Z,100371.80
2017-11-15T22:34:06.025Z,100375.20
2017-11-15T22:36:37.478Z,100377.58
2017-11-15T22:39:08.737Z,100381.65
2017-11-15T22:41:40.250Z,100382.03
2017-11-15T22:44:12.415Z,100378.41
2017-11-15T22:46:43.724Z,100378.63
2017-11-15T22:49:15.560Z,100378.63
2017-11-15T22:51:50.552Z,100381.70
2017-11-15T22:54:22.390Z,100374.35
2017-11-15T22:56:54.426Z,100351.36
2017-11-15T22:59:26.337Z,100377.14
2017-11-15T23:01:58.593Z,100373.55
2017-11-15T23:04:31.108Z,100378.75
2017-11-15T23:07:02.511Z,100375.53
2017-11-15T23:09:39.046Z,100372.62
2017-11-15T23:12:12.337Z,100374.73
2017-11-15T23:14:47.666Z,100380.34
2017-11-15T23:17:19.725Z,100374.85
2017-11-15T23:22:50.425Z,100362.70
2017-11-15T23:25:22.333Z,100367.23
2017-11-15T23:27:55.068Z,100368.31
2017-11-15T23:30:32.095Z,100362.00
2017-11-15T23:33:05.993Z,100354.38
2017-11-15T23:35:41.882Z,100365.34
2017-11-15T23:38:25.434Z,100367.33
2017-11-15T23:40:58.619Z,100358.80
2017-11-15T23:43:33.612Z,100355.98
2017-11-15T23:59:16.427Z,100358.44
